Time;durP1;ratioP1;P1;durP2;ratioP2;P2;SDS_P1;SDS_P2;PMS_P1;PMS_P2;Temp;Humidity;BMP_temperature;BMP_pressure;BME280_temperature;BME280_humidity;BME280_pressure;Samples;Min_cycle;Max_cycle;Signal;HPM_P1;HPM_P2
2023/12/26 00:00:28;;;;;;;15.63;3.20;;;;;;;;;;1032716;28;20042;-63
2023/12/26 00:01:19;;;;;;;10.82;2.67;;;;;;;;;;1033061;28;20112;-62
2023/12/26 00:01:50;;;;;;;8.38;2.55;;;;;;;;;;1033752;28;20057;-62
2023/12/26 00:02:20;;;;;;;8.93;3.83;;;;;;;;;;1033697;28;20056;-63
2023/12/26 00:02:51;;;;;;;12.02;3.60;;;;;;;;;;1033114;28;20050;-62
2023/12/26 00:03:21;;;;;;;7.80;3.08;;;;;;;;;;1033819;28;20069;-63
2023/12/26 00:03:52;;;;;;;12.40;2.72;;;;;;;;;;1034305;28;20056;-62
2023/12/26 00:04:23;;;;;;;13.40;3.55;;;;;;;;;;1034214;28;20132;-62
2023/12/26 00:04:53;;;;;;;14.02;2.90;;;;;;;;;;1033128;28;20054;-63
2023/12/26 00:05:24;;;;;;;9.38;2.90;;;;;;;;;;1034516;28;20049;-62
2023/12/26 00:05:54;;;;;;;9.40;3.08;;;;;;;;;;1033885;28;20054;-62
2023/12/26 00:06:26;;;;;;;9.13;2.75;;;;;;;;;;1033667;28;20050;-63
2023/12/26 00:06:56;;;;;;;12.13;3.75;;;;;;;;;;1034617;28;20061;-62
2023/12/26 00:07:26;;;;;;;16.60;3.50;;;;;;;;;;1034110;28;20050;-62
2023/12/26 00:07:57;;;;;;;10.35;2.55;;;;;;;;;;1034914;28;20587;-63
2023/12/26 00:08:27;;;;;;;11.90;3.20;;;;;;;;;;1033889;28;20050;-62
2023/12/26 00:08:59;;;;;;;11.43;2.70;;;;;;;;;;1033889;28;20038;-63
2023/12/26 00:09:29;;;;;;;15.93;2.90;;;;;;;;;;1033753;28;20685;-62
2023/12/26 00:09:59;;;;;;;10.20;2.30;;;;;;;;;;1033571;28;20050;-63
2023/12/26 00:10:30;;;;;;;11.27;3.00;;;;;;;;;;1033843;28;20056;-63
2023/12/26 00:11:01;;;;;;;10.63;2.35;;;;;;;;;;1034704;28;20861;-62
2023/12/26 00:11:32;;;;;;;9.88;3.05;;;;;;;;;;1033888;28;20053;-63
2023/12/26 00:12:02;;;;;;;9.20;2.55;;;;;;;;;;1034095;28;20049;-62
2023/12/26 00:12:33;;;;;;;9.27;2.55;;;;;;;;;;1033223;28;20136;-62
2023/12/26 00:13:04;;;;;;;8.35;2.40;;;;;;;;;;1034691;28;20675;-62
2023/12/26 00:13:34;;;;;;;9.25;2.88;;;;;;;;;;1033630;28;20192;-62
2023/12/26 00:14:05;;;;;;;13.90;2.95;;;;;;;;;;1034300;28;20465;-62
2023/12/26 00:14:35;;;;;;;10.25;2.63;;;;;;;;;;1032534;28;20053;-62
2023/12/26 00:15:06;;;;;;;13.65;3.20;;;;;;;;;;1034396;28;20046;-62
2023/12/26 00:15:37;;;;;;;12.35;2.63;;;;;;;;;;1033457;28;20772;-63
2023/12/26 00:16:07;;;;;;;12.82;3.03;;;;;;;;;;1032308;28;20052;-62
2023/12/26 00:16:41;;;;;;;11.80;2.38;;;;;;;;;;1034258;28;20057;-63
2023/12/26 00:17:12;;;;;;;10.30;2.83;;;;;;;;;;1032396;28;20598;-62
2023/12/26 00:17:42;;;;;;;11.40;2.78;;;;;;;;;;1033392;28;20684;-62
2023/12/26 00:18:13;;;;;;;14.68;3.55;;;;;;;;;;1032330;28;20184;-62
2023/12/26 00:18:43;;;;;;;9.32;2.50;;;;;;;;;;1033653;28;20053;-62
2023/12/26 00:19:14;;;;;;;9.10;2.33;;;;;;;;;;1034733;28;20042;-62
2023/12/26 00:19:46;;;;;;;11.85;2.55;;;;;;;;;;1033444;28;20061;-62
2023/12/26 00:20:17;;;;;;;7.22;2.63;;;;;;;;;;1033420;28;20060;-62
2023/12/26 00:20:47;;;;;;;11.90;2.60;;;;;;;;;;1033578;28;20111;-62
2023/12/26 00:21:18;;;;;;;13.13;2.75;;;;;;;;;;1034649;28;20104;-62
2023/12/26 00:21:49;;;;;;;11.93;2.83;;;;;;;;;;1033767;28;20303;-63
2023/12/26 00:22:19;;;;;;;8.77;2.55;;;;;;;;;;1034868;28;20049;-62
2023/12/26 00:22:50;;;;;;;11.93;3.42;;;;;;;;;;1033251;28;20160;-62
2023/12/26 00:23:20;;;;;;;13.07;2.85;;;;;;;;;;1034173;28;20050;-62
2023/12/26 00:23:51;;;;;;;13.20;2.55;;;;;;;;;;1033522;28;20046;-62
2023/12/26 00:24:21;;;;;;;9.90;2.65;;;;;;;;;;1034251;28;20605;-63
2023/12/26 00:24:52;;;;;;;14.95;3.25;;;;;;;;;;1034308;28;20069;-62
2023/12/26 00:25:23;;;;;;;10.60;2.30;;;;;;;;;;1032349;28;20108;-62
2023/12/26 00:25:53;;;;;;;12.48;2.92;;;;;;;;;;1034011;28;20058;-62
2023/12/26 00:26:24;;;;;;;10.45;3.03;;;;;;;;;;1033906;28;20050;-62
2023/12/26 00:26:54;;;;;;;8.80;2.50;;;;;;;;;;1033688;28;20050;-62
2023/12/26 00:27:25;;;;;;;13.43;2.92;;;;;;;;;;1033597;28;20753;-62
2023/12/26 00:27:55;;;;;;;10.60;3.08;;;;;;;;;;1034857;28;20058;-62
2023/12/26 00:28:26;;;;;;;8.73;2.70;;;;;;;;;;1033455;28;20049;-62
2023/12/26 00:28:56;;;;;;;13.73;2.83;;;;;;;;;;1034398;28;20045;-62
2023/12/26 00:29:27;;;;;;;17.50;3.22;;;;;;;;;;1033344;28;20061;-62
2023/12/26 00:29:57;;;;;;;9.82;2.92;;;;;;;;;;1033346;28;20387;-62
2023/12/26 00:30:28;;;;;;;8.98;2.63;;;;;;;;;;1033220;28;20049;-63
2023/12/26 00:30:59;;;;;;;11.85;2.72;;;;;;;;;;1034036;28;20050;-62
2023/12/26 00:31:30;;;;;;;8.70;2.80;;;;;;;;;;1033796;28;20474;-63
2023/12/26 00:32:00;;;;;;;16.02;3.25;;;;;;;;;;1034492;28;20910;-63
2023/12/26 00:32:31;;;;;;;13.07;3.08;;;;;;;;;;1034251;28;20046;-62
2023/12/26 00:33:01;;;;;;;10.68;3.13;;;;;;;;;;1033700;28;20089;-62
2023/12/26 00:33:32;;;;;;;10.93;2.83;;;;;;;;;;1033273;28;20537;-62
2023/12/26 00:34:03;;;;;;;10.70;2.58;;;;;;;;;;1034695;28;20065;-62
2023/12/26 00:34:33;;;;;;;14.60;2.85;;;;;;;;;;1033443;28;20050;-63
2023/12/26 00:35:04;;;;;;;11.50;2.97;;;;;;;;;;1034868;28;20136;-63
2023/12/26 00:35:34;;;;;;;9.32;2.40;;;;;;;;;;1032605;28;20061;-62
2023/12/26 00:36:05;;;;;;;10.10;2.50;;;;;;;;;;1034852;28;20491;-62
2023/12/26 00:36:36;;;;;;;14.73;3.63;;;;;;;;;;1033004;28;20144;-62
2023/12/26 00:37:07;;;;;;;14.00;3.35;;;;;;;;;;1034261;28;20414;-63
2023/12/26 00:37:38;;;;;;;16.08;2.97;;;;;;;;;;1032442;28;20053;-63
2023/12/26 00:38:09;;;;;;;11.80;2.80;;;;;;;;;;1034953;28;20073;-62
2023/12/26 00:38:39;;;;;;;10.60;2.65;;;;;;;;;;1033664;28;20162;-62
2023/12/26 00:39:11;;;;;;;11.77;2.97;;;;;;;;;;1034233;28;20410;-62
2023/12/26 00:39:42;;;;;;;9.10;2.75;;;;;;;;;;1032937;28;20117;-62
2023/12/26 00:40:12;;;;;;;10.93;3.15;;;;;;;;;;1034634;28;20130;-62
2023/12/26 00:40:43;;;;;;;10.18;3.08;;;;;;;;;;1032909;28;20049;-62
2023/12/26 00:41:13;;;;;;;9.57;3.35;;;;;;;;;;1033888;28;20041;-62
2023/12/26 00:41:44;;;;;;;11.02;2.65;;;;;;;;;;1034170;28;20053;-63
2023/12/26 00:42:15;;;;;;;9.82;3.28;;;;;;;;;;1033824;28;20070;-62
2023/12/26 00:42:45;;;;;;;7.20;2.92;;;;;;;;;;1034475;28;20073;-62
2023/12/26 00:43:16;;;;;;;10.32;2.60;;;;;;;;;;1034200;28;20045;-62
2023/12/26 00:43:47;;;;;;;13.45;2.45;;;;;;;;;;1032303;28;20050;-62
2023/12/26 00:44:17;;;;;;;9.48;2.75;;;;;;;;;;1034323;28;20680;-62
2023/12/26 00:44:47;;;;;;;12.63;2.78;;;;;;;;;;1032539;28;21863;-63
2023/12/26 00:45:18;;;;;;;11.60;2.47;;;;;;;;;;1032082;28;20058;-62
2023/12/26 00:45:49;;;;;;;10.35;2.50;;;;;;;;;;1032663;28;20050;-62
2023/12/26 00:46:19;;;;;;;8.27;2.70;;;;;;;;;;1034059;28;20046;-63
2023/12/26 00:46:50;;;;;;;11.45;2.80;;;;;;;;;;1032850;28;20133;-63
2023/12/26 00:47:21;;;;;;;6.85;2.45;;;;;;;;;;1033977;28;20089;-63
2023/12/26 00:47:51;;;;;;;10.35;2.70;;;;;;;;;;1031341;28;21905;-63
2023/12/26 00:48:22;;;;;;;13.30;2.53;;;;;;;;;;1031788;28;20046;-62
2023/12/26 00:48:52;;;;;;;12.60;2.78;;;;;;;;;;1032797;28;20966;-62
2023/12/26 00:49:23;;;;;;;11.75;2.90;;;;;;;;;;1033825;28;20516;-62
2023/12/26 00:49:56;;;;;;;9.00;2.63;;;;;;;;;;1032779;28;20566;-62
2023/12/26 00:50:27;;;;;;;8.82;2.40;;;;;;;;;;1032741;28;20200;-63
2023/12/26 00:50:57;;;;;;;11.02;2.50;;;;;;;;;;1034446;28;20058;-62
2023/12/26 00:51:29;;;;;;;12.27;2.80;;;;;;;;;;1032530;28;20050;-63
2023/12/26 00:52:00;;;;;;;13.98;2.83;;;;;;;;;;1034754;28;20064;-62
2023/12/26 00:52:32;;;;;;;10.20;2.85;;;;;;;;;;1033691;28;20153;-63
2023/12/26 00:53:05;;;;;;;10.30;2.65;;;;;;;;;;1034080;28;20049;-62
2023/12/26 00:53:36;;;;;;;9.20;2.20;;;;;;;;;;1033186;28;20050;-62
2023/12/26 00:54:07;;;;;;;11.82;3.20;;;;;;;;;;1034309;28;20403;-63
2023/12/26 00:54:37;;;;;;;8.55;3.28;;;;;;;;;;1033515;28;20057;-62
2023/12/26 00:55:08;;;;;;;15.40;2.95;;;;;;;;;;1033310;28;20123;-62
2023/12/26 00:55:38;;;;;;;11.50;2.30;;;;;;;;;;1033164;28;20406;-62
2023/12/26 00:56:09;;;;;;;11.35;2.88;;;;;;;;;;1032316;28;20057;-62
2023/12/26 00:56:39;;;;;;;12.20;2.28;;;;;;;;;;1033041;28;20204;-63
2023/12/26 00:57:10;;;;;;;9.68;2.35;;;;;;;;;;1033908;28;20115;-62
2023/12/26 00:57:41;;;;;;;9.13;2.42;;;;;;;;;;1032729;28;20573;-63
2023/12/26 00:58:11;;;;;;;13.25;2.80;;;;;;;;;;1034421;28;20611;-63
2023/12/26 00:58:43;;;;;;;10.07;2.50;;;;;;;;;;1032383;28;20057;-62
2023/12/26 00:59:14;;;;;;;16.40;2.83;;;;;;;;;;1033897;28;20052;-62
2023/12/26 00:59:46;;;;;;;13.43;2.97;;;;;;;;;;1033618;28;20061;-62
2023/12/26 01:00:16;;;;;;;7.32;2.38;;;;;;;;;;1034008;28;20046;-62
2023/12/26 01:00:47;;;;;;;13.43;2.90;;;;;;;;;;1031181;28;20050;-62
2023/12/26 01:01:17;;;;;;;10.07;2.47;;;;;;;;;;1034492;28;20466;-62
2023/12/26 01:01:48;;;;;;;8.48;2.33;;;;;;;;;;1032642;28;20053;-62
2023/12/26 01:02:21;;;;;;;13.63;2.70;;;;;;;;;;1033825;28;20073;-62
2023/12/26 01:02:52;;;;;;;10.55;2.60;;;;;;;;;;1032500;28;20050;-62
2023/12/26 01:03:22;;;;;;;16.15;3.17;;;;;;;;;;1034134;28;20054;-62
2023/12/26 01:03:53;;;;;;;14.75;2.47;;;;;;;;;;1033764;28;20163;-62
2023/12/26 01:04:23;;;;;;;13.65;3.35;;;;;;;;;;1033665;28;20042;-62
2023/12/26 01:04:54;;;;;;;13.65;2.63;;;;;;;;;;1034537;28;20064;-63
2023/12/26 01:05:24;;;;;;;10.27;2.30;;;;;;;;;;1033046;28;20054;-62
2023/12/26 01:05:55;;;;;;;9.60;2.63;;;;;;;;;;1033726;28;20148;-63
2023/12/26 01:06:25;;;;;;;8.85;2.20;;;;;;;;;;1032931;28;20135;-62
2023/12/26 01:06:56;;;;;;;11.77;2.78;;;;;;;;;;1034102;28;20626;-62
2023/12/26 01:07:27;;;;;;;6.97;2.17;;;;;;;;;;1032007;28;20061;-63
2023/12/26 01:07:57;;;;;;;10.27;2.40;;;;;;;;;;1033763;28;20053;-63
2023/12/26 01:08:27;;;;;;;11.90;2.70;;;;;;;;;;1033670;28;20088;-63
2023/12/26 01:08:58;;;;;;;12.57;3.10;;;;;;;;;;1032818;28;20045;-62
2023/12/26 01:09:28;;;;;;;11.43;2.80;;;;;;;;;;1033263;28;20057;-62
2023/12/26 01:10:02;;;;;;;14.90;3.20;;;;;;;;;;1034262;28;20474;-62
2023/12/26 01:10:34;;;;;;;13.43;2.55;;;;;;;;;;1032647;28;20054;-62
2023/12/26 01:11:04;;;;;;;13.95;2.85;;;;;;;;;;1033791;28;20457;-62
2023/12/26 01:11:34;;;;;;;10.80;2.50;;;;;;;;;;1033265;28;20124;-62
2023/12/26 01:12:06;;;;;;;11.38;2.65;;;;;;;;;;1034634;28;20542;-62
2023/12/26 01:12:36;;;;;;;11.20;2.35;;;;;;;;;;1034091;28;20496;-62
2023/12/26 01:13:07;;;;;;;9.20;2.35;;;;;;;;;;1034217;28;20053;-62
2023/12/26 01:13:37;;;;;;;10.85;2.38;;;;;;;;;;1032822;28;20573;-62
2023/12/26 01:14:08;;;;;;;13.18;2.35;;;;;;;;;;1034630;28;20049;-63
2023/12/26 01:14:40;;;;;;;9.45;2.50;;;;;;;;;;1033562;28;20045;-63
2023/12/26 01:15:11;;;;;;;13.93;3.42;;;;;;;;;;1033151;28;20054;-63
2023/12/26 01:15:41;;;;;;;19.25;2.53;;;;;;;;;;1033644;28;20473;-62
2023/12/26 01:16:12;;;;;;;8.82;2.45;;;;;;;;;;1032632;28;20631;-63
2023/12/26 01:16:45;;;;;;;8.32;2.50;;;;;;;;;;1032379;28;20046;-62
2023/12/26 01:17:15;;;;;;;12.05;3.15;;;;;;;;;;1034293;28;20104;-62
2023/12/26 01:17:46;;;;;;;12.48;3.33;;;;;;;;;;1033278;28;20112;-62
2023/12/26 01:18:16;;;;;;;12.55;3.17;;;;;;;;;;1032744;28;20054;-62
2023/12/26 01:18:47;;;;;;;8.13;2.35;;;;;;;;;;1033074;28;20053;-62
2023/12/26 01:19:17;;;;;;;10.85;3.17;;;;;;;;;;1033355;28;20053;-62
2023/12/26 01:19:48;;;;;;;9.07;3.00;;;;;;;;;;1033283;28;20050;-62
2023/12/26 01:20:18;;;;;;;8.70;2.20;;;;;;;;;;1033245;28;20423;-62
2023/12/26 01:20:49;;;;;;;10.10;2.92;;;;;;;;;;1034268;28;20049;-62
2023/12/26 01:21:19;;;;;;;10.50;2.50;;;;;;;;;;1032235;28;20136;-62
2023/12/26 01:21:50;;;;;;;12.98;2.70;;;;;;;;;;1034036;28;20080;-62
2023/12/26 01:22:20;;;;;;;9.15;2.75;;;;;;;;;;1034268;28;20038;-63
2023/12/26 01:22:51;;;;;;;9.55;3.08;;;;;;;;;;1032254;28;20412;-63
2023/12/26 01:23:22;;;;;;;13.98;3.17;;;;;;;;;;1033093;28;20054;-62
2023/12/26 01:23:52;;;;;;;9.52;3.00;;;;;;;;;;1034067;28;20065;-63
2023/12/26 01:24:23;;;;;;;9.65;2.72;;;;;;;;;;1032695;28;20052;-62
2023/12/26 01:24:53;;;;;;;9.98;2.72;;;;;;;;;;1033675;28;20054;-62
2023/12/26 01:25:24;;;;;;;7.93;2.40;;;;;;;;;;1034207;28;20053;-62
2023/12/26 01:25:54;;;;;;;8.52;2.85;;;;;;;;;;1033992;28;20073;-62
2023/12/26 01:26:25;;;;;;;8.18;2.58;;;;;;;;;;1031893;28;20437;-62
2023/12/26 01:26:56;;;;;;;8.82;2.47;;;;;;;;;;1033681;28;20045;-62
2023/12/26 01:27:26;;;;;;;14.68;2.75;;;;;;;;;;1032555;28;20050;-63
2023/12/26 01:27:57;;;;;;;8.43;2.58;;;;;;;;;;1033844;28;20560;-63
2023/12/26 01:28:27;;;;;;;11.32;2.78;;;;;;;;;;1032235;28;20046;-63
2023/12/26 01:28:58;;;;;;;7.57;2.10;;;;;;;;;;1033471;28;20050;-62
2023/12/26 01:29:28;;;;;;;7.07;2.40;;;;;;;;;;1032488;28;20495;-62
2023/12/26 01:30:02;;;;;;;7.75;2.63;;;;;;;;;;1033702;28;20050;-62
2023/12/26 01:30:34;;;;;;;13.48;2.75;;;;;;;;;;1033021;28;20080;-62
2023/12/26 01:31:05;;;;;;;9.80;2.88;;;;;;;;;;1033633;28;20510;-63
2023/12/26 01:31:36;;;;;;;13.63;2.83;;;;;;;;;;1031827;28;20841;-62
2023/12/26 01:32:06;;;;;;;8.15;2.78;;;;;;;;;;1032564;28;20055;-62
2023/12/26 01:32:37;;;;;;;7.93;2.40;;;;;;;;;;1032971;28;20092;-62
2023/12/26 01:33:08;;;;;;;12.52;3.03;;;;;;;;;;1033752;28;20130;-62
2023/12/26 01:33:38;;;;;;;11.50;2.88;;;;;;;;;;1032909;28;20427;-62
2023/12/26 01:34:09;;;;;;;13.73;3.20;;;;;;;;;;1034717;28;20368;-62
2023/12/26 01:34:40;;;;;;;10.73;2.90;;;;;;;;;;1031589;28;20050;-62
2023/12/26 01:35:10;;;;;;;8.07;2.78;;;;;;;;;;1033419;28;20052;-62
2023/12/26 01:35:41;;;;;;;9.68;2.92;;;;;;;;;;1032781;28;20050;-63
2023/12/26 01:36:11;;;;;;;6.30;2.95;;;;;;;;;;1033258;28;20137;-63
2023/12/26 01:36:42;;;;;;;8.98;2.80;;;;;;;;;;1033724;28;20048;-63
2023/12/26 01:37:12;;;;;;;9.57;2.67;;;;;;;;;;1034453;28;20470;-62
2023/12/26 01:37:43;;;;;;;12.93;3.15;;;;;;;;;;1032737;28;20046;-63
2023/12/26 01:38:13;;;;;;;10.45;3.05;;;;;;;;;;1033065;28;20089;-63
2023/12/26 01:38:44;;;;;;;9.68;3.50;;;;;;;;;;1033597;28;20570;-63
2023/12/26 01:39:16;;;;;;;11.43;3.08;;;;;;;;;;1032488;28;20144;-62
2023/12/26 01:39:46;;;;;;;10.77;2.95;;;;;;;;;;1032056;28;20495;-62
2023/12/26 01:40:16;;;;;;;12.02;2.83;;;;;;;;;;1032207;28;20542;-63
2023/12/26 01:40:47;;;;;;;8.10;3.00;;;;;;;;;;1034116;28;20769;-63
2023/12/26 01:41:17;;;;;;;9.40;3.00;;;;;;;;;;1033168;28;20503;-63
2023/12/26 01:41:48;;;;;;;9.00;2.75;;;;;;;;;;1032655;28;20061;-62
2023/12/26 01:42:19;;;;;;;9.10;3.30;;;;;;;;;;1033678;28;20042;-63
2023/12/26 01:42:49;;;;;;;8.10;2.88;;;;;;;;;;1033919;28;20139;-62
2023/12/26 01:43:20;;;;;;;13.15;3.97;;;;;;;;;;1033489;28;20042;-63
2023/12/26 01:43:51;;;;;;;9.57;3.00;;;;;;;;;;1033747;28;20049;-62
2023/12/26 01:44:21;;;;;;;12.38;2.85;;;;;;;;;;1034145;28;20737;-63
2023/12/26 01:44:52;;;;;;;8.88;2.95;;;;;;;;;;1033564;28;20057;-62
2023/12/26 01:45:22;;;;;;;5.43;2.38;;;;;;;;;;1033722;28;20759;-62
2023/12/26 01:45:57;;;;;;;10.63;3.25;;;;;;;;;;1031544;28;20144;-62
2023/12/26 01:46:28;;;;;;;7.90;3.00;;;;;;;;;;1032969;28;20049;-63
2023/12/26 01:46:59;;;;;;;7.25;3.03;;;;;;;;;;1033064;28;20050;-62
2023/12/26 01:47:30;;;;;;;7.95;3.05;;;;;;;;;;1033593;28;20061;-62
2023/12/26 01:48:03;;;;;;;11.57;3.00;;;;;;;;;;1033617;28;20049;-63
2023/12/26 01:48:34;;;;;;;6.88;2.80;;;;;;;;;;1034320;28;20613;-63
2023/12/26 01:49:04;;;;;;;12.32;2.97;;;;;;;;;;1032716;28;20089;-62
2023/12/26 01:49:35;;;;;;;9.80;2.75;;;;;;;;;;1032636;28;20136;-62
2023/12/26 01:50:07;;;;;;;11.18;3.00;;;;;;;;;;1033354;28;20045;-62
2023/12/26 01:50:38;;;;;;;5.85;2.70;;;;;;;;;;1032634;28;20493;-62
2023/12/26 01:51:09;;;;;;;8.57;3.22;;;;;;;;;;1031903;28;20759;-62
2023/12/26 01:51:42;;;;;;;12.63;3.22;;;;;;;;;;1033306;28;20049;-62
2023/12/26 01:52:15;;;;;;;9.52;3.25;;;;;;;;;;1033365;28;20445;-63
2023/12/26 01:52:46;;;;;;;11.52;3.10;;;;;;;;;;1033702;28;20052;-62
2023/12/26 01:53:16;;;;;;;11.50;3.92;;;;;;;;;;1032019;28;20049;-63
2023/12/26 01:53:48;;;;;;;9.00;3.13;;;;;;;;;;1033242;28;20073;-63
2023/12/26 01:54:19;;;;;;;9.93;3.33;;;;;;;;;;1033359;28;20107;-63
2023/12/26 01:54:49;;;;;;;7.28;2.28;;;;;;;;;;1031378;28;20045;-62
2023/12/26 01:55:21;;;;;;;10.07;3.30;;;;;;;;;;1032816;28;20073;-62
2023/12/26 01:55:52;;;;;;;10.98;3.33;;;;;;;;;;1033477;28;20064;-63
2023/12/26 01:56:23;;;;;;;16.98;3.60;;;;;;;;;;1029071;28;20061;-62
2023/12/26 01:56:53;;;;;;;9.70;3.20;;;;;;;;;;1029089;28;20050;-62
2023/12/26 01:57:24;;;;;;;9.48;3.05;;;;;;;;;;1029262;28;20054;-63
2023/12/26 01:57:57;;;;;;;14.40;3.70;;;;;;;;;;1033356;28;20064;-63
2023/12/26 01:58:27;;;;;;;12.18;3.88;;;;;;;;;;1036220;28;20046;-62
2023/12/26 01:58:58;;;;;;;9.45;3.30;;;;;;;;;;1038573;28;20049;-62
2023/12/26 01:59:29;;;;;;;7.22;2.75;;;;;;;;;;1036856;28;20413;-63
2023/12/26 02:00:02;;;;;;;10.38;4.45;;;;;;;;;;1037859;28;20045;-63
2023/12/26 02:00:33;;;;;;;9.82;3.55;;;;;;;;;;1036864;28;20084;-62
2023/12/26 02:01:04;;;;;;;9.48;3.17;;;;;;;;;;1037890;28;20051;-62
2023/12/26 02:01:35;;;;;;;11.07;3.35;;;;;;;;;;1039784;28;20056;-62
2023/12/26 02:02:06;;;;;;;10.30;3.53;;;;;;;;;;1041966;28;20048;-63
2023/12/26 02:02:38;;;;;;;8.77;2.88;;;;;;;;;;1041329;28;20103;-62
2023/12/26 02:03:09;;;;;;;10.70;3.67;;;;;;;;;;1040999;28;20067;-62
2023/12/26 02:03:40;;;;;;;9.30;3.75;;;;;;;;;;1036578;28;20383;-62
2023/12/26 02:04:11;;;;;;;12.00;3.75;;;;;;;;;;1036040;28;20483;-63
2023/12/26 02:04:42;;;;;;;7.82;3.20;;;;;;;;;;1038103;28;20048;-63
2023/12/26 02:05:14;;;;;;;7.35;3.35;;;;;;;;;;1038102;28;20112;-63
2023/12/26 02:05:46;;;;;;;9.60;3.05;;;;;;;;;;1037648;28;20552;-63
2023/12/26 02:06:16;;;;;;;10.18;3.45;;;;;;;;;;1036364;28;20155;-63
2023/12/26 02:06:48;;;;;;;6.57;3.05;;;;;;;;;;1038068;28;20098;-62
2023/12/26 02:07:19;;;;;;;8.00;3.53;;;;;;;;;;1036564;28;20640;-63
2023/12/26 02:07:49;;;;;;;9.77;3.35;;;;;;;;;;1037744;28;20589;-62
2023/12/26 02:08:21;;;;;;;10.60;3.40;;;;;;;;;;1038355;28;20605;-62
2023/12/26 02:08:51;;;;;;;9.40;3.17;;;;;;;;;;1038250;28;20053;-63
2023/12/26 02:09:25;;;;;;;11.45;3.53;;;;;;;;;;1036966;28;20065;-62
2023/12/26 02:09:56;;;;;;;9.57;3.20;;;;;;;;;;1036810;28;20057;-63
2023/12/26 02:10:27;;;;;;;9.05;3.53;;;;;;;;;;1037969;28;20060;-62
2023/12/26 02:10:57;;;;;;;11.32;3.70;;;;;;;;;;1037320;28;20056;-63
2023/12/26 02:11:27;;;;;;;9.43;3.15;;;;;;;;;;1038319;28;20409;-62
2023/12/26 02:11:58;;;;;;;12.45;3.13;;;;;;;;;;1038204;28;20088;-62
2023/12/26 02:12:29;;;;;;;9.30;3.70;;;;;;;;;;1038203;28;20041;-63
2023/12/26 02:13:00;;;;;;;7.38;3.10;;;;;;;;;;1038488;28;20061;-62
2023/12/26 02:13:31;;;;;;;6.93;3.00;;;;;;;;;;1037732;28;20123;-62
2023/12/26 02:14:02;;;;;;;10.23;3.30;;;;;;;;;;1038113;28;20049;-63
2023/12/26 02:14:32;;;;;;;9.50;3.30;;;;;;;;;;1037026;28;20061;-62
2023/12/26 02:15:04;;;;;;;8.73;2.88;;;;;;;;;;1038515;28;20044;-63
2023/12/26 02:15:34;;;;;;;8.75;3.33;;;;;;;;;;1037386;28;20074;-62
2023/12/26 02:16:15;;;;;;;8.55;2.85;;;;;;;;;;1038319;28;20091;-62
2023/12/26 02:16:47;;;;;;;8.45;3.00;;;;;;;;;;1037380;28;20535;-62
2023/12/26 02:17:24;;;;;;;8.48;2.88;;;;;;;;;;1037629;28;20083;-62
2023/12/26 02:17:56;;;;;;;9.60;2.85;;;;;;;;;;1037787;28;20060;-62
2023/12/26 02:18:27;;;;;;;12.25;3.22;;;;;;;;;;1035344;28;20622;-62
2023/12/26 02:18:58;;;;;;;10.73;2.97;;;;;;;;;;1038194;28;20154;-62
2023/12/26 02:19:28;;;;;;;9.70;3.33;;;;;;;;;;1038396;28;20049;-62
2023/12/26 02:19:59;;;;;;;9.02;3.30;;;;;;;;;;1036169;28;20056;-63
2023/12/26 02:20:29;;;;;;;9.52;3.08;;;;;;;;;;1036571;28;20096;-62
2023/12/26 02:21:00;;;;;;;8.27;3.13;;;;;;;;;;1037005;28;20572;-62
2023/12/26 02:21:32;;;;;;;15.40;3.80;;;;;;;;;;1037921;28;20464;-63
2023/12/26 02:22:03;;;;;;;9.30;3.13;;;;;;;;;;1038071;28;20100;-63
2023/12/26 02:22:34;;;;;;;7.22;2.75;;;;;;;;;;1037593;28;20191;-63
2023/12/26 02:23:05;;;;;;;11.90;3.10;;;;;;;;;;1038068;28;20053;-63
2023/12/26 02:23:37;;;;;;;6.90;2.85;;;;;;;;;;1037708;28;20041;-63
2023/12/26 02:24:08;;;;;;;7.85;2.95;;;;;;;;;;1038087;28;20135;-62
2023/12/26 02:24:42;;;;;;;11.32;3.15;;;;;;;;;;1037875;28;20103;-62
2023/12/26 02:25:15;;;;;;;9.27;2.70;;;;;;;;;;1035728;28;20052;-63
2023/12/26 02:25:46;;;;;;;6.55;2.90;;;;;;;;;;1036013;28;20136;-63
2023/12/26 02:26:16;;;;;;;7.40;3.08;;;;;;;;;;1036293;28;20076;-62
2023/12/26 02:26:51;;;;;;;13.65;3.72;;;;;;;;;;1036628;28;20803;-63
2023/12/26 02:27:26;;;;;;;7.55;2.40;;;;;;;;;;1037664;28;20425;-62
2023/12/26 02:27:58;;;;;;;7.43;2.83;;;;;;;;;;1037608;28;20058;-62
2023/12/26 02:28:31;;;;;;;10.10;3.28;;;;;;;;;;1036309;28;20087;-63
2023/12/26 02:29:02;;;;;;;6.93;3.22;;;;;;;;;;1037253;28;20056;-62
2023/12/26 02:29:33;;;;;;;8.43;2.80;;;;;;;;;;1037558;28;20049;-62
2023/12/26 02:30:06;;;;;;;11.10;2.88;;;;;;;;;;1036307;28;20060;-62
2023/12/26 02:30:37;;;;;;;15.60;3.05;;;;;;;;;;1037344;28;20049;-62
2023/12/26 02:31:08;;;;;;;10.63;3.05;;;;;;;;;;1037434;28;20147;-62
2023/12/26 02:31:40;;;;;;;13.18;3.13;;;;;;;;;;1036460;28;20179;-62
2023/12/26 02:32:13;;;;;;;9.43;3.00;;;;;;;;;;1037476;28;20052;-63
2023/12/26 02:32:46;;;;;;;10.90;2.88;;;;;;;;;;1037563;28;20041;-62
2023/12/26 02:33:17;;;;;;;8.40;2.90;;;;;;;;;;1037881;28;20421;-62
2023/12/26 02:33:48;;;;;;;8.60;3.30;;;;;;;;;;1037253;28;20399;-62
2023/12/26 02:34:18;;;;;;;5.25;2.60;;;;;;;;;;1036770;28;20124;-62
2023/12/26 02:34:54;;;;;;;12.25;2.88;;;;;;;;;;1037997;28;20890;-62
2023/12/26 02:35:25;;;;;;;10.13;3.25;;;;;;;;;;1038117;28;22387;-63
2023/12/26 02:35:56;;;;;;;10.10;3.08;;;;;;;;;;1037185;28;20767;-63
2023/12/26 02:36:26;;;;;;;7.93;2.80;;;;;;;;;;1036736;28;20136;-63
2023/12/26 02:36:57;;;;;;;8.38;2.63;;;;;;;;;;1038432;28;20114;-62
2023/12/26 02:37:28;;;;;;;11.02;3.20;;;;;;;;;;1036576;28;20045;-62
2023/12/26 02:38:01;;;;;;;13.00;3.17;;;;;;;;;;1038270;28;20064;-62
2023/12/26 02:38:31;;;;;;;7.40;2.60;;;;;;;;;;1038439;28;20053;-62
2023/12/26 02:39:02;;;;;;;10.02;3.30;;;;;;;;;;1036444;28;20050;-62
2023/12/26 02:39:32;;;;;;;8.10;2.97;;;;;;;;;;1038045;28;20046;-62
2023/12/26 02:40:03;;;;;;;6.20;2.72;;;;;;;;;;1036964;28;20076;-63
2023/12/26 02:40:34;;;;;;;10.57;3.13;;;;;;;;;;1038256;28;20064;-62
2023/12/26 02:41:04;;;;;;;7.90;3.42;;;;;;;;;;1037121;28;20052;-63
2023/12/26 02:41:36;;;;;;;9.18;2.78;;;;;;;;;;1036700;28;20049;-62
2023/12/26 02:42:06;;;;;;;10.18;3.47;;;;;;;;;;1038351;28;20053;-63
2023/12/26 02:42:37;;;;;;;7.30;3.15;;;;;;;;;;1035777;28;20091;-63
2023/12/26 02:43:07;;;;;;;12.75;3.22;;;;;;;;;;1037456;28;20057;-63
2023/12/26 02:43:38;;;;;;;12.45;3.35;;;;;;;;;;1037935;28;20056;-63
2023/12/26 02:44:08;;;;;;;9.20;3.45;;;;;;;;;;1038063;28;20096;-63
2023/12/26 02:44:39;;;;;;;9.77;3.10;;;;;;;;;;1037390;28;20100;-63
2023/12/26 02:45:09;;;;;;;11.05;2.90;;;;;;;;;;1037120;28;20049;-62
2023/12/26 02:45:41;;;;;;;7.95;2.90;;;;;;;;;;1036789;28;20053;-62
2023/12/26 02:46:12;;;;;;;6.88;2.67;;;;;;;;;;1038602;28;20057;-62
2023/12/26 02:46:42;;;;;;;6.60;2.50;;;;;;;;;;1037643;28;20716;-63
2023/12/26 02:47:14;;;;;;;10.00;2.80;;;;;;;;;;1037682;28;20481;-62
2023/12/26 02:47:44;;;;;;;10.43;2.83;;;;;;;;;;1037344;28;20123;-63
2023/12/26 02:48:16;;;;;;;10.10;2.53;;;;;;;;;;1038063;28;20111;-62
2023/12/26 02:48:47;;;;;;;11.65;3.10;;;;;;;;;;1037490;28;20434;-63
2023/12/26 02:49:17;;;;;;;6.20;2.50;;;;;;;;;;1038398;28;20413;-63
2023/12/26 02:49:49;;;;;;;7.63;3.08;;;;;;;;;;1037256;28;20433;-63
2023/12/26 02:50:19;;;;;;;7.18;2.42;;;;;;;;;;1037777;28;20068;-63
2023/12/26 02:50:50;;;;;;;11.05;2.65;;;;;;;;;;1037592;28;20049;-62
2023/12/26 02:51:21;;;;;;;12.48;2.92;;;;;;;;;;1038007;28;20045;-63
2023/12/26 02:51:51;;;;;;;12.10;3.10;;;;;;;;;;1038382;28;20063;-63
2023/12/26 02:52:22;;;;;;;8.13;2.45;;;;;;;;;;1036863;28;20459;-63
2023/12/26 02:52:52;;;;;;;11.35;2.97;;;;;;;;;;1037362;28;20085;-63
2023/12/26 02:53:23;;;;;;;11.10;3.00;;;;;;;;;;1037501;28;20056;-62
2023/12/26 02:53:54;;;;;;;9.35;3.05;;;;;;;;;;1037697;28;20208;-63
2023/12/26 02:54:25;;;;;;;9.93;2.90;;;;;;;;;;1036600;28;20063;-62
2023/12/26 02:54:55;;;;;;;11.18;2.90;;;;;;;;;;1037570;28;20119;-63
2023/12/26 02:55:26;;;;;;;10.38;2.97;;;;;;;;;;1036433;28;20068;-63
2023/12/26 02:55:56;;;;;;;9.82;2.78;;;;;;;;;;1036164;28;20688;-62
2023/12/26 02:56:27;;;;;;;11.25;3.05;;;;;;;;;;1038031;28;20114;-63
2023/12/26 02:56:57;;;;;;;7.82;3.30;;;;;;;;;;1037650;28;20136;-63
2023/12/26 02:57:28;;;;;;;6.28;2.60;;;;;;;;;;1036928;28;23305;-63
2023/12/26 02:57:58;;;;;;;14.07;2.92;;;;;;;;;;1037189;28;20496;-63
2023/12/26 02:58:29;;;;;;;12.15;3.05;;;;;;;;;;1036690;28;20045;-63
2023/12/26 02:58:59;;;;;;;10.10;3.10;;;;;;;;;;1037277;28;20458;-63
2023/12/26 02:59:30;;;;;;;8.65;2.33;;;;;;;;;;1037816;28;20049;-62
2023/12/26 03:00:01;;;;;;;9.05;2.40;;;;;;;;;;1038041;28;20045;-63
2023/12/26 03:00:31;;;;;;;10.60;2.88;;;;;;;;;;1036304;28;20052;-63
2023/12/26 03:01:01;;;;;;;12.75;3.13;;;;;;;;;;1036236;28;20063;-62
2023/12/26 03:01:32;;;;;;;5.38;2.67;;;;;;;;;;1037919;28;20128;-63
2023/12/26 03:02:03;;;;;;;12.32;2.72;;;;;;;;;;1038464;28;20037;-63
2023/12/26 03:02:34;;;;;;;10.48;2.88;;;;;;;;;;1036874;28;20050;-62
2023/12/26 03:03:05;;;;;;;7.05;2.40;;;;;;;;;;1038298;28;20549;-62
2023/12/26 03:03:36;;;;;;;6.97;2.80;;;;;;;;;;1036977;28;20161;-62
2023/12/26 03:04:06;;;;;;;8.63;2.83;;;;;;;;;;1038091;28;20147;-62
2023/12/26 03:04:37;;;;;;;9.50;2.63;;;;;;;;;;1036791;28;20551;-62